Time;durP1;ratioP1;P1;durP2;ratioP2;P2;SDS_P1;SDS_P2;PMS_P1;PMS_P2;Temp;Humidity;BMP_temperature;BMP_pressure;BME280_temperature;BME280_humidity;BME280_pressure;Samples;Min_cycle;Max_cycle;Signal;HPM_P1;HPM_P2
2022/03/19 00:00:36;;;;;;;;;;;7.10;74.80;;;;;;5006109;28;20430;-86
2022/03/19 00:03:02;;;;;;;;;;;7.00;75.00;;;;;;5010560;28;20019;-85
2022/03/19 00:05:27;;;;;;;;;;;7.00;75.10;;;;;;5011789;28;19922;-86
2022/03/19 00:07:53;;;;;;;;;;;7.10;74.80;;;;;;5013066;28;19914;-86
2022/03/19 00:10:20;;;;;;;;;;;7.20;75.40;;;;;;5013370;28;19953;-86
2022/03/19 00:12:46;;;;;;;;;;;7.30;74.60;;;;;;5013586;28;19913;-85
2022/03/19 00:15:11;;;;;;;;;;;7.30;73.90;;;;;;5004284;28;19968;-86
2022/03/19 00:17:37;;;;;;;;;;;7.10;74.50;;;;;;5010789;28;19944;-86
2022/03/19 00:20:04;;;;;;;;;;;7.20;74.60;;;;;;5009908;28;20036;-86
2022/03/19 00:22:29;;;;;;;;;;;7.30;74.20;;;;;;5010232;28;20297;-86
2022/03/19 00:24:55;;;;;;;;;;;7.50;73.50;;;;;;5013282;28;19917;-87
2022/03/19 00:27:20;;;;;;;;;;;7.50;73.20;;;;;;5025769;28;20290;-86
2022/03/19 00:29:46;;;;;;;;;;;7.40;73.60;;;;;;5011004;28;19917;-86
2022/03/19 00:32:11;;;;;;;;;;;7.20;74.20;;;;;;5009969;28;19936;-87
2022/03/19 00:34:37;;;;;;;;;;;7.10;74.70;;;;;;5010513;28;19940;-87
2022/03/19 00:37:02;;;;;;;;;;;7.10;74.70;;;;;;5010791;28;19929;-86
2022/03/19 00:39:28;;;;;;;;;;;6.90;75.20;;;;;;5010292;28;19914;-85
2022/03/19 00:41:54;;;;;;;;;;;6.60;76.20;;;;;;5014473;28;20294;-86
2022/03/19 00:44:23;;;;;;;;;;;6.50;76.80;;;;;;5013314;28;20390;-86
2022/03/19 00:46:49;;;;;;;;;;;6.50;77.10;;;;;;5013490;28;20304;-86
2022/03/19 00:49:14;;;;;;;;;;;6.50;77.00;;;;;;5013023;28;19913;-85
2022/03/19 00:51:40;;;;;;;;;;;6.40;77.30;;;;;;5015406;28;20374;-85
2022/03/19 00:54:12;;;;;;;;;;;6.40;77.50;;;;;;5012772;28;19913;-85
2022/03/19 00:56:38;;;;;;;;;;;6.40;77.60;;;;;;5013552;28;19917;-85
2022/03/19 00:59:04;;;;;;;;;;;6.40;77.90;;;;;;5012691;28;19917;-86
2022/03/19 01:01:29;;;;;;;;;;;6.50;78.00;;;;;;5011317;28;19959;-86
2022/03/19 01:03:55;;;;;;;;;;;6.70;77.40;;;;;;5012661;28;19992;-84
2022/03/19 01:06:21;;;;;;;;;;;6.50;77.10;;;;;;5014007;28;19940;-85
2022/03/19 01:08:46;;;;;;;;;;;6.30;77.50;;;;;;5014774;28;19929;-85
2022/03/19 01:11:11;;;;;;;;;;;6.30;77.40;;;;;;5014475;28;20620;-86
2022/03/19 01:13:37;;;;;;;;;;;6.30;77.40;;;;;;5015061;28;19913;-84
2022/03/19 01:16:03;;;;;;;;;;;6.40;77.00;;;;;;5014085;28;20694;-84
2022/03/19 01:18:29;;;;;;;;;;;6.10;77.30;;;;;;5014877;28;20067;-84
2022/03/19 01:20:54;;;;;;;;;;;6.10;77.60;;;;;;5021597;28;20006;-85
2022/03/19 01:23:20;;;;;;;;;;;5.90;78.50;;;;;;5013809;28;19921;-84
2022/03/19 01:25:46;;;;;;;;;;;5.90;78.80;;;;;;5011830;28;20023;-85
2022/03/19 01:28:11;;;;;;;;;;;5.90;78.80;;;;;;5013890;28;19910;-85
2022/03/19 01:30:37;;;;;;;;;;;6.00;78.80;;;;;;5016230;28;19914;-85
2022/03/19 01:33:02;;;;;;;;;;;5.90;79.10;;;;;;5015871;28;19918;-86
2022/03/19 01:35:28;;;;;;;;;;;5.80;79.60;;;;;;5014735;28;20288;-86
2022/03/19 01:37:53;;;;;;;;;;;5.80;80.00;;;;;;5015774;28;19971;-86
2022/03/19 01:40:19;;;;;;;;;;;5.80;80.00;;;;;;5015494;28;20036;-86
2022/03/19 01:42:46;;;;;;;;;;;5.80;79.90;;;;;;5015290;28;19909;-86
2022/03/19 01:45:13;;;;;;;;;;;5.90;79.80;;;;;;5015324;28;19921;-84
2022/03/19 01:47:39;;;;;;;;;;;5.80;79.50;;;;;;5015176;28;20016;-86
2022/03/19 01:50:05;;;;;;;;;;;5.70;79.50;;;;;;5014770;28;19976;-86
2022/03/19 01:52:31;;;;;;;;;;;5.60;79.70;;;;;;5015698;28;20290;-87
2022/03/19 01:54:58;;;;;;;;;;;5.60;80.00;;;;;;5015688;28;19917;-86
2022/03/19 01:57:25;;;;;;;;;;;5.60;80.20;;;;;;5013149;28;19913;-86
2022/03/19 01:59:50;;;;;;;;;;;5.50;80.20;;;;;;5013272;28;19964;-88
2022/03/19 02:02:16;;;;;;;;;;;5.50;80.50;;;;;;5015568;28;19932;-87
2022/03/19 02:04:41;;;;;;;;;;;5.40;80.60;;;;;;5014955;28;19909;-88
2022/03/19 02:07:08;;;;;;;;;;;5.30;80.40;;;;;;5014240;28;19963;-87
2022/03/19 02:09:33;;;;;;;;;;;5.30;80.50;;;;;;5014523;28;19966;-86
2022/03/19 02:11:59;;;;;;;;;;;5.10;81.00;;;;;;5017993;28;19949;-86
2022/03/19 02:14:25;;;;;;;;;;;5.20;81.30;;;;;;5032079;28;19905;-87
2022/03/19 02:16:50;;;;;;;;;;;5.20;81.50;;;;;;5030564;28;19933;-87
2022/03/19 02:19:16;;;;;;;;;;;5.20;81.50;;;;;;5030243;28;19960;-88
2022/03/19 02:21:43;;;;;;;;;;;5.20;81.60;;;;;;5031750;28;20032;-87
2022/03/19 02:26:54;;;;;;;;;;;5.20;81.50;;;;;;5007169;28;20219;-86
2022/03/19 02:29:20;;;;;;;;;;;5.20;81.70;;;;;;5012586;28;19921;-85
2022/03/19 02:31:47;;;;;;;;;;;5.20;81.90;;;;;;5011745;28;19921;-86
2022/03/19 02:34:12;;;;;;;;;;;5.10;82.00;;;;;;5012373;28;19937;-85
2022/03/19 02:36:41;;;;;;;;;;;5.10;82.30;;;;;;5012142;28;19914;-84
2022/03/19 02:39:09;;;;;;;;;;;5.10;82.30;;;;;;5012312;28;21495;-84
2022/03/19 02:41:35;;;;;;;;;;;5.10;82.30;;;;;;5023918;28;20068;-86
2022/03/19 02:44:00;;;;;;;;;;;5.00;82.10;;;;;;5012566;28;19984;-84
2022/03/19 02:46:36;;;;;;;;;;;5.00;82.30;;;;;;5010841;28;19918;-82
2022/03/19 02:49:01;;;;;;;;;;;5.00;82.50;;;;;;5013284;28;19914;-85
2022/03/19 02:51:27;;;;;;;;;;;4.90;82.50;;;;;;5015046;28;20071;-84
2022/03/19 02:53:52;;;;;;;;;;;4.90;82.80;;;;;;5014960;28;19940;-84
2022/03/19 02:56:18;;;;;;;;;;;4.90;82.70;;;;;;5014646;28;19913;-86
2022/03/19 02:58:43;;;;;;;;;;;4.90;83.00;;;;;;5014917;28;20374;-85
2022/03/19 03:01:09;;;;;;;;;;;4.90;82.90;;;;;;5011822;28;20343;-87
2022/03/19 03:03:34;;;;;;;;;;;4.90;82.90;;;;;;5012978;28;19922;-84
2022/03/19 03:06:00;;;;;;;;;;;5.00;82.80;;;;;;5014938;28;19916;-86
2022/03/19 03:08:25;;;;;;;;;;;5.00;82.90;;;;;;5013310;28;19930;-86
2022/03/19 03:10:50;;;;;;;;;;;5.00;82.70;;;;;;5012132;28;20298;-86
2022/03/19 03:13:16;;;;;;;;;;;5.00;82.60;;;;;;5013310;28;19913;-86
2022/03/19 03:15:41;;;;;;;;;;;4.90;82.70;;;;;;5080069;22;19948;-81
2022/03/19 03:18:07;;;;;;;;;;;4.90;82.90;;;;;;5053247;28;20306;-81
2022/03/19 03:20:33;;;;;;;;;;;5.00;83.00;;;;;;5052924;28;19991;-82
2022/03/19 03:22:58;;;;;;;;;;;5.00;82.80;;;;;;5053584;28;19919;-81
2022/03/19 03:25:24;;;;;;;;;;;5.10;83.00;;;;;;5052465;28;19916;-81
2022/03/19 03:27:51;;;;;;;;;;;5.10;82.70;;;;;;5052031;28;19913;-82
2022/03/19 03:30:18;;;;;;;;;;;5.10;82.70;;;;;;5050967;28;19959;-82
2022/03/19 03:32:44;;;;;;;;;;;5.10;82.60;;;;;;5051355;28;19917;-81
2022/03/19 03:35:09;;;;;;;;;;;5.10;82.60;;;;;;5067243;28;19972;-82
2022/03/19 03:37:34;;;;;;;;;;;5.10;82.40;;;;;;5074472;28;19901;-83
2022/03/19 03:40:00;;;;;;;;;;;5.00;82.50;;;;;;5055850;28;19920;-83
2022/03/19 03:42:25;;;;;;;;;;;4.90;82.70;;;;;;5052206;28;20327;-81
2022/03/19 03:44:54;;;;;;;;;;;4.90;82.70;;;;;;5051583;28;19956;-82
2022/03/19 03:47:20;;;;;;;;;;;5.00;82.40;;;;;;5052295;28;20012;-83
2022/03/19 03:49:45;;;;;;;;;;;5.00;82.10;;;;;;5051351;28;19948;-82
2022/03/19 03:52:12;;;;;;;;;;;5.00;82.00;;;;;;5051931;28;19962;-83
2022/03/19 03:54:37;;;;;;;;;;;5.00;82.00;;;;;;5052160;28;19967;-83
2022/03/19 03:57:03;;;;;;;;;;;4.90;82.20;;;;;;5054282;28;19917;-82
2022/03/19 03:59:30;;;;;;;;;;;4.90;82.40;;;;;;5055271;28;20323;-82
2022/03/19 04:01:55;;;;;;;;;;;5.00;82.40;;;;;;5052203;28;20015;-81
2022/03/19 04:04:21;;;;;;;;;;;5.00;82.10;;;;;;5054160;28;19951;-81
2022/03/19 04:06:46;;;;;;;;;;;5.10;82.20;;;;;;5053443;28;19956;-81
2022/03/19 04:09:12;;;;;;;;;;;4.90;82.40;;;;;;5053622;28;19913;-82
2022/03/19 04:11:37;;;;;;;;;;;4.90;82.60;;;;;;5054758;28;19919;-81
2022/03/19 04:14:03;;;;;;;;;;;4.90;82.70;;;;;;5055187;28;19917;-81
2022/03/19 04:16:29;;;;;;;;;;;4.80;82.70;;;;;;5059341;28;19916;-81
2022/03/19 04:18:54;;;;;;;;;;;4.70;82.90;;;;;;5057514;28;19912;-81
2022/03/19 04:21:20;;;;;;;;;;;4.60;83.00;;;;;;5061917;28;19913;-80
2022/03/19 04:23:47;;;;;;;;;;;4.60;83.30;;;;;;5060935;28;19931;-80
2022/03/19 04:26:13;;;;;;;;;;;4.60;83.50;;;;;;5061650;28;19916;-80
2022/03/19 04:28:38;;;;;;;;;;;4.60;83.70;;;;;;5062891;28;19917;-80
2022/03/19 04:31:04;;;;;;;;;;;4.60;83.70;;;;;;5063638;28;19913;-81
2022/03/19 04:33:29;;;;;;;;;;;4.60;83.90;;;;;;5062295;28;19936;-81
2022/03/19 04:38:40;;;;;;;;;;;4.50;83.60;;;;;;5056626;28;19973;-81
2022/03/19 04:41:05;;;;;;;;;;;4.40;83.40;;;;;;5053973;28;19967;-81
2022/03/19 04:43:31;;;;;;;;;;;4.30;83.30;;;;;;5054708;28;19966;-82
2022/03/19 04:45:56;;;;;;;;;;;4.20;83.90;;;;;;5053384;28;19913;-81
2022/03/19 04:48:22;;;;;;;;;;;4.20;84.20;;;;;;5056524;28;19963;-80
2022/03/19 04:50:48;;;;;;;;;;;4.10;84.20;;;;;;5058985;28;19908;-81
2022/03/19 04:53:13;;;;;;;;;;;4.10;84.30;;;;;;5072506;28;19939;-81
2022/03/19 04:55:40;;;;;;;;;;;4.00;84.30;;;;;;5067950;28;19924;-81
2022/03/19 04:58:06;;;;;;;;;;;4.10;84.40;;;;;;5056487;28;19913;-81
2022/03/19 05:00:32;;;;;;;;;;;4.10;84.60;;;;;;5056912;28;19913;-81
2022/03/19 05:02:58;;;;;;;;;;;4.10;84.60;;;;;;5053340;28;19924;-81
2022/03/19 05:05:24;;;;;;;;;;;4.10;84.50;;;;;;5056151;28;20000;-82
2022/03/19 05:07:54;;;;;;;;;;;4.20;84.60;;;;;;5052620;28;19913;-80
2022/03/19 05:13:03;;;;;;;;;;;4.30;84.50;;;;;;5046415;28;19939;-82
2022/03/19 05:15:30;;;;;;;;;;;4.20;84.60;;;;;;5048335;28;19917;-82
2022/03/19 05:17:55;;;;;;;;;;;4.30;84.80;;;;;;5062544;28;19917;-81
2022/03/19 05:20:21;;;;;;;;;;;4.30;84.50;;;;;;5051909;28;19936;-81
2022/03/19 05:22:47;;;;;;;;;;;4.30;84.40;;;;;;5070787;28;19908;-82
2022/03/19 05:25:13;;;;;;;;;;;4.30;84.80;;;;;;5074242;28;19979;-82
2022/03/19 05:27:38;;;;;;;;;;;4.30;84.50;;;;;;5076058;28;19908;-83
2022/03/19 05:30:05;;;;;;;;;;;4.20;84.60;;;;;;5076823;28;19948;-82
2022/03/19 05:32:30;;;;;;;;;;;4.20;84.60;;;;;;5059373;28;19916;-81
2022/03/19 05:34:56;;;;;;;;;;;4.30;84.20;;;;;;5052193;28;20448;-81
2022/03/19 05:37:21;;;;;;;;;;;4.40;83.90;;;;;;5053224;28;19917;-80
2022/03/19 05:39:47;;;;;;;;;;;4.40;83.80;;;;;;5049979;28;20354;-81
2022/03/19 05:42:12;;;;;;;;;;;4.40;83.90;;;;;;5052378;28;19995;-82
2022/03/19 05:44:38;;;;;;;;;;;4.40;83.90;;;;;;5053726;28;19912;-82
2022/03/19 05:47:04;;;;;;;;;;;4.30;84.00;;;;;;5054041;28;19920;-81
2022/03/19 05:49:30;;;;;;;;;;;4.20;84.00;;;;;;5052498;28;19985;-81
2022/03/19 05:51:56;;;;;;;;;;;4.20;84.40;;;;;;5051949;28;19916;-81
2022/03/19 05:54:22;;;;;;;;;;;4.20;84.20;;;;;;5051166;28;19983;-82
2022/03/19 05:56:48;;;;;;;;;;;4.30;84.20;;;;;;5052130;28;20518;-82
2022/03/19 05:59:14;;;;;;;;;;;4.20;84.10;;;;;;5063980;28;19917;-82
2022/03/19 06:01:41;;;;;;;;;;;4.10;84.40;;;;;;5072369;28;19913;-83
2022/03/19 06:04:07;;;;;;;;;;;4.10;84.70;;;;;;5070690;28;19909;-81
2022/03/19 06:06:33;;;;;;;;;;;4.10;84.70;;;;;;5058102;28;19919;-81
2022/03/19 06:08:58;;;;;;;;;;;4.20;85.10;;;;;;5056751;28;19913;-81
2022/03/19 06:11:24;;;;;;;;;;;4.30;85.10;;;;;;5054057;28;19924;-81
2022/03/19 06:13:50;;;;;;;;;;;4.30;85.00;;;;;;5053538;28;20141;-81
2022/03/19 06:16:15;;;;;;;;;;;4.20;85.00;;;;;;5052506;28;19949;-80
2022/03/19 06:18:45;;;;;;;;;;;4.30;85.30;;;;;;5056562;28;19944;-81
2022/03/19 06:21:11;;;;;;;;;;;4.20;85.30;;;;;;5053067;28;20012;-80
2022/03/19 06:23:37;;;;;;;;;;;4.20;85.60;;;;;;5055282;28;19971;-81
2022/03/19 06:26:02;;;;;;;;;;;4.30;85.90;;;;;;5052450;28;20266;-81
2022/03/19 06:28:28;;;;;;;;;;;4.30;85.70;;;;;;5053648;28;20281;-80
2022/03/19 06:30:54;;;;;;;;;;;4.30;85.70;;;;;;5052804;28;19928;-79
2022/03/19 06:33:19;;;;;;;;;;;4.40;85.80;;;;;;5055623;28;19917;-81
2022/03/19 06:38:29;;;;;;;;;;;4.50;86.30;;;;;;5076573;28;19931;-81
2022/03/19 06:40:55;;;;;;;;;;;4.50;86.40;;;;;;5062838;28;19921;-85
2022/03/19 06:43:21;;;;;;;;;;;4.60;86.40;;;;;;5053624;28;19946;-84
2022/03/19 06:45:46;;;;;;;;;;;4.70;86.40;;;;;;5053975;28;19916;-84
2022/03/19 06:48:12;;;;;;;;;;;4.80;86.10;;;;;;5051764;28;19917;-84
2022/03/19 06:50:38;;;;;;;;;;;4.80;85.90;;;;;;5053323;28;19913;-85
2022/03/19 06:53:04;;;;;;;;;;;4.90;85.90;;;;;;5053305;28;20358;-86
2022/03/19 06:55:29;;;;;;;;;;;5.00;85.60;;;;;;5052849;28;19936;-85
2022/03/19 06:57:56;;;;;;;;;;;5.00;85.30;;;;;;5051911;28;19919;-86
2022/03/19 07:00:22;;;;;;;;;;;5.00;85.50;;;;;;5048746;28;19985;-85
2022/03/19 07:02:47;;;;;;;;;;;5.10;85.10;;;;;;5050612;28;19944;-84
2022/03/19 07:05:18;;;;;;;;;;;5.10;85.20;;;;;;5049812;28;19959;-87
2022/03/19 07:07:43;;;;;;;;;;;5.10;85.20;;;;;;5044387;28;19909;-84
2022/03/19 07:10:09;;;;;;;;;;;5.30;84.50;;;;;;5051595;28;19923;-82
2022/03/19 07:12:45;;;;;;;;;;;5.30;84.40;;;;;;5051899;28;19908;-83
2022/03/19 07:15:11;;;;;;;;;;;5.30;84.50;;;;;;5048511;28;20690;-84
2022/03/19 07:17:37;;;;;;;;;;;5.40;84.50;;;;;;5049053;28;19920;-86
2022/03/19 07:20:02;;;;;;;;;;;5.50;84.30;;;;;;5049779;28;19920;-82
2022/03/19 07:22:28;;;;;;;;;;;5.50;84.00;;;;;;5052267;28;19916;-85
2022/03/19 07:24:54;;;;;;;;;;;5.60;83.50;;;;;;5051296;28;19952;-87
2022/03/19 07:27:19;;;;;;;;;;;5.60;83.80;;;;;;5051105;28;19924;-83
2022/03/19 07:29:45;;;;;;;;;;;5.70;83.90;;;;;;5048629;28;20324;-82
2022/03/19 07:32:12;;;;;;;;;;;5.70;83.70;;;;;;5048594;28;19916;-83
2022/03/19 07:34:39;;;;;;;;;;;5.80;83.30;;;;;;5051132;28;20361;-84
2022/03/19 07:37:05;;;;;;;;;;;5.80;83.30;;;;;;5056511;28;20253;-82
2022/03/19 07:39:31;;;;;;;;;;;5.90;82.90;;;;;;5053379;28;19913;-82
2022/03/19 07:41:56;;;;;;;;;;;5.90;83.10;;;;;;5055270;28;19916;-83
2022/03/19 07:44:22;;;;;;;;;;;5.90;82.80;;;;;;5053816;28;19940;-85
2022/03/19 07:46:47;;;;;;;;;;;6.00;83.10;;;;;;5053259;28;20293;-84
2022/03/19 07:49:13;;;;;;;;;;;6.00;83.20;;;;;;5052163;28;19988;-83
2022/03/19 07:51:38;;;;;;;;;;;6.10;83.30;;;;;;5054865;28;19934;-85
2022/03/19 07:54:04;;;;;;;;;;;6.10;82.20;;;;;;5053936;28;20435;-83
2022/03/19 07:56:30;;;;;;;;;;;6.10;82.10;;;;;;5053611;28;19919;-85
2022/03/19 07:58:55;;;;;;;;;;;6.20;82.50;;;;;;5047761;28;19927;-85
2022/03/19 08:01:21;;;;;;;;;;;6.20;82.00;;;;;;5044803;28;19920;-83
2022/03/19 08:03:47;;;;;;;;;;;6.30;81.60;;;;;;5047306;28;19956;-85
2022/03/19 08:06:13;;;;;;;;;;;6.30;81.60;;;;;;5047117;28;19913;-83
2022/03/19 08:08:38;;;;;;;;;;;6.40;82.20;;;;;;5035751;28;19917;-86
2022/03/19 08:11:04;;;;;;;;;;;6.50;81.10;;;;;;5041728;28;19921;-84
2022/03/19 08:13:30;;;;;;;;;;;6.50;80.80;;;;;;5050346;28;19913;-87
2022/03/19 08:15:56;;;;;;;;;;;6.50;81.20;;;;;;5053252;28;20414;-84
2022/03/19 08:18:21;;;;;;;;;;;6.60;80.50;;;;;;5052634;28;19917;-84
2022/03/19 08:20:47;;;;;;;;;;;6.60;80.30;;;;;;5054417;28;19920;-84
2022/03/19 08:23:13;;;;;;;;;;;6.80;80.40;;;;;;5050877;28;19917;-85
2022/03/19 08:25:39;;;;;;;;;;;6.90;80.10;;;;;;5051042;28;20318;-86
2022/03/19 08:28:05;;;;;;;;;;;7.00;79.80;;;;;;5046992;28;19920;-85
2022/03/19 08:30:31;;;;;;;;;;;7.10;77.90;;;;;;5052859;28;20015;-87
2022/03/19 08:32:56;;;;;;;;;;;7.00;77.70;;;;;;5044259;28;19915;-87
2022/03/19 08:35:22;;;;;;;;;;;7.10;76.80;;;;;;5048906;28;19917;-85
2022/03/19 08:37:47;;;;;;;;;;;7.20;77.30;;;;;;5052347;28;19913;-85
2022/03/19 08:40:16;;;;;;;;;;;7.30;76.40;;;;;;5046195;28;19974;-83
2022/03/19 08:42:42;;;;;;;;;;;7.30;75.80;;;;;;5046718;28;19917;-86
2022/03/19 08:45:08;;;;;;;;;;;7.40;75.20;;;;;;5049226;28;19913;-86
2022/03/19 08:47:33;;;;;;;;;;;7.50;74.60;;;;;;5051105;28;19917;-85
2022/03/19 08:50:00;;;;;;;;;;;7.60;74.80;;;;;;5050240;28;19958;-87
2022/03/19 08:52:26;;;;;;;;;;;7.60;72.50;;;;;;5048679;28;19913;-88
2022/03/19 08:54:52;;;;;;;;;;;7.60;72.30;;;;;;5042590;28;19928;-89
2022/03/19 08:57:18;;;;;;;;;;;7.70;73.90;;;;;;5048269;28;20004;-88
2022/03/19 08:59:44;;;;;;;;;;;7.80;73.80;;;;;;5048225;28;19953;-85
2022/03/19 09:02:09;;;;;;;;;;;7.90;71.40;;;;;;5050626;28;19916;-87
2022/03/19 09:04:35;;;;;;;;;;;7.90;70.80;;;;;;5052713;28;19920;-85
2022/03/19 09:07:01;;;;;;;;;;;7.90;69.70;;;;;;5054196;28;19916;-82
2022/03/19 09:09:27;;;;;;;;;;;7.90;70.90;;;;;;5054581;28;19920;-85
2022/03/19 09:11:52;;;;;;;;;;;8.00;71.00;;;;;;5054282;28;19935;-86
2022/03/19 09:14:19;;;;;;;;;;;8.10;71.10;;;;;;5048815;28;19936;-86
2022/03/19 09:16:45;;;;;;;;;;;8.20;68.60;;;;;;5053823;28;19928;-85
2022/03/19 09:19:10;;;;;;;;;;;8.20;68.60;;;;;;5053785;28;20296;-86
2022/03/19 09:21:36;;;;;;;;;;;8.30;67.90;;;;;;5055310;28;20422;-86
2022/03/19 09:24:03;;;;;;;;;;;8.30;67.10;;;;;;5036199;28;19932;-84
2022/03/19 09:26:29;;;;;;;;;;;8.30;68.00;;;;;;5042762;28;19908;-85
2022/03/19 09:28:55;;;;;;;;;;;8.40;67.80;;;;;;5058677;28;19912;-85
2022/03/19 09:31:20;;;;;;;;;;;8.50;65.80;;;;;;5057950;28;19955;-86
2022/03/19 09:33:46;;;;;;;;;;;8.50;66.40;;;;;;5069222;28;19913;-85
2022/03/19 09:36:12;;;;;;;;;;;8.50;65.70;;;;;;5070436;28;20080;-85
2022/03/19 09:38:40;;;;;;;;;;;8.60;64.60;;;;;;5066257;28;19913;-86
2022/03/19 09:41:05;;;;;;;;;;;8.60;63.30;;;;;;5059091;28;19908;-86
2022/03/19 09:43:31;;;;;;;;;;;8.80;64.90;;;;;;5055085;28;19920;-86
2022/03/19 09:45:56;;;;;;;;;;;8.80;64.10;;;;;;5055664;28;19913;-87
2022/03/19 09:48:22;;;;;;;;;;;8.90;64.00;;;;;;5036668;28;19916;-84
2022/03/19 09:50:54;;;;;;;;;;;8.90;64.40;;;;;;5049260;28;19952;-88
2022/03/19 09:53:20;;;;;;;;;;;9.00;63.80;;;;;;5057091;28;19916;-87
2022/03/19 09:55:46;;;;;;;;;;;9.00;64.20;;;;;;5063685;28;19916;-86
2022/03/19 09:58:13;;;;;;;;;;;9.10;61.40;;;;;;5071518;28;20035;-86
2022/03/19 10:00:38;;;;;;;;;;;9.00;60.30;;;;;;5067199;28;19924;-86
2022/03/19 10:03:07;;;;;;;;;;;9.00;59.90;;;;;;5066507;28;19913;-87
2022/03/19 10:08:36;;;;;;;;;;;9.20;57.90;;;;;;5055651;28;19924;-86
2022/03/19 10:11:08;;;;;;;;;;;9.20;57.50;;;;;;5055057;28;19916;-85
2022/03/19 10:13:38;;;;;;;;;;;9.40;58.40;;;;;;5051093;28;20293;-85
2022/03/19 10:16:04;;;;;;;;;;;9.60;57.60;;;;;;5055503;28;19925;-86
2022/03/19 10:18:30;;;;;;;;;;;9.60;54.20;;;;;;5057645;28;19913;-85
2022/03/19 10:20:59;;;;;;;;;;;9.50;53.60;;;;;;5054537;28;19908;-83
2022/03/19 10:23:35;;;;;;;;;;;9.50;54.40;;;;;;5056740;28;20261;-86
2022/03/19 10:26:01;;;;;;;;;;;9.60;54.40;;;;;;5055058;28;19968;-86
2022/03/19 10:28:31;;;;;;;;;;;9.60;53.00;;;;;;5049161;28;20384;-83
2022/03/19 10:30:57;;;;;;;;;;;9.60;53.10;;;;;;5058316;28;19909;-81
2022/03/19 10:33:27;;;;;;;;;;;9.60;52.50;;;;;;5056655;28;20384;-83
2022/03/19 10:36:13;;;;;;;;;;;9.80;50.80;;;;;;5060329;28;19959;-80
2022/03/19 10:38:46;;;;;;;;;;;9.90;51.50;;;;;;5066384;28;19974;-83
2022/03/19 10:41:16;;;;;;;;;;;9.90;49.20;;;;;;5071369;28;19965;-84
2022/03/19 10:43:44;;;;;;;;;;;10.00;48.30;;;;;;5073466;28;19915;-82
2022/03/19 10:46:09;;;;;;;;;;;10.00;47.80;;;;;;5074050;28;19913;-85
2022/03/19 10:48:35;;;;;;;;;;;10.10;45.90;;;;;;5073573;28;19901;-81
2022/03/19 10:51:02;;;;;;;;;;;10.20;43.60;;;;;;5090938;28;19939;-84
2022/03/19 10:53:27;;;;;;;;;;;10.20;43.10;;;;;;5069112;28;19936;-85
2022/03/19 10:55:53;;;;;;;;;;;10.10;43.00;;;;;;5057009;28;20327;-82
2022/03/19 10:58:19;;;;;;;;;;;10.20;44.70;;;;;;5056019;28;19923;-85
2022/03/19 11:00:48;;;;;;;;;;;10.20;44.00;;;;;;5056505;28;19936;-84
2022/03/19 11:03:18;;;;;;;;;;;10.10;43.50;;;;;;5054678;28;19983;-85
2022/03/19 11:05:44;;;;;;;;;;;10.20;45.70;;;;;;5055672;28;19994;-83
2022/03/19 11:08:10;;;;;;;;;;;10.30;45.50;;;;;;5059416;28;20008;-82
2022/03/19 11:10:36;;;;;;;;;;;10.30;45.80;;;;;;5050990;28;19913;-87
2022/03/19 11:13:03;;;;;;;;;;;10.40;45.00;;;;;;5060555;28;19897;-83
2022/03/19 11:15:35;;;;;;;;;;;10.40;45.30;;;;;;5054435;28;20232;-85
2022/03/19 11:18:03;;;;;;;;;;;10.30;42.90;;;;;;5056062;28;19913;-83
2022/03/19 11:20:29;;;;;;;;;;;10.40;45.10;;;;;;5067696;28;19959;-84
2022/03/19 11:22:55;;;;;;;;;;;10.40;46.60;;;;;;5048046;28;19913;-86
2022/03/19 11:25:31;;;;;;;;;;;10.50;42.00;;;;;;5057988;28;19923;-87
2022/03/19 11:27:56;;;;;;;;;;;10.40;45.90;;;;;;5053191;28;19913;-85
2022/03/19 11:30:24;;;;;;;;;;;10.50;44.30;;;;;;5062876;28;19913;-83
2022/03/19 11:33:00;;;;;;;;;;;10.50;44.20;;;;;;5059760;28;19952;-89
2022/03/19 11:35:26;;;;;;;;;;;10.50;43.30;;;;;;5061604;28;19917;-87
2022/03/19 11:38:02;;;;;;;;;;;10.50;42.60;;;;;;5064105;28;19920;-86
2022/03/19 11:40:37;;;;;;;;;;;10.70;44.10;;;;;;5054020;28;19928;-83
2022/03/19 11:43:07;;;;;;;;;;;10.70;43.40;;;;;;5064975;28;19927;-82
2022/03/19 11:45:53;;;;;;;;;;;10.70;43.40;;;;;;5067695;28;19912;-85
2022/03/19 11:48:37;;;;;;;;;;;10.80;42.60;;;;;;5045307;28;19917;-87
2022/03/19 11:51:11;;;;;;;;;;;10.80;42.90;;;;;;5045253;28;20004;-85
2022/03/19 11:53:49;;;;;;;;;;;10.70;42.60;;;;;;5049025;28;19927;-81
2022/03/19 11:56:19;;;;;;;;;;;10.70;41.90;;;;;;5049369;28;19952;-82
2022/03/19 11:58:45;;;;;;;;;;;11.00;44.50;;;;;;5049564;28;19917;-80
2022/03/19 12:01:10;;;;;;;;;;;11.10;42.40;;;;;;5051165;28;19963;-80
2022/03/19 12:03:56;;;;;;;;;;;11.00;42.50;;;;;;5048888;28;19908;-80
2022/03/19 12:06:28;;;;;;;;;;;11.10;41.30;;;;;;5051971;28;19913;-80
2022/03/19 12:08:53;;;;;;;;;;;11.10;42.10;;;;;;5054136;28;19908;-80
2022/03/19 12:11:20;;;;;;;;;;;11.10;41.30;;;;;;5051877;28;19924;-80
2022/03/19 12:13:47;;;;;;;;;;;11.10;40.60;;;;;;5051903;28;19932;-80
2022/03/19 12:16:33;;;;;;;;;;;11.20;43.20;;;;;;5050684;28;19994;-81
2022/03/19 12:18:58;;;;;;;;;;;11.20;41.50;;;;;;5051107;28;20054;-80
2022/03/19 12:21:24;;;;;;;;;;;11.20;43.90;;;;;;5051460;28;19955;-81
2022/03/19 12:24:02;;;;;;;;;;;11.40;41.50;;;;;;5051058;28;19920;-80
2022/03/19 12:26:35;;;;;;;;;;;11.40;41.60;;;;;;5050858;28;19919;-80
2022/03/19 12:29:02;;;;;;;;;;;11.30;39.10;;;;;;5050570;28;19909;-80
2022/03/19 12:31:32;;;;;;;;;;;11.10;38.80;;;;;;5050828;28;19940;-81
2022/03/19 12:33:58;;;;;;;;;;;11.20;40.40;;;;;;5049264;28;19909;-80
2022/03/19 12:36:24;;;;;;;;;;;11.30;36.90;;;;;;5053323;28;19917;-80
2022/03/19 12:38:52;;;;;;;;;;;11.30;37.40;;;;;;5053493;28;19908;-80
2022/03/19 12:41:27;;;;;;;;;;;11.30;38.20;;;;;;5055712;28;19913;-79
2022/03/19 12:43:53;;;;;;;;;;;11.10;37.80;;;;;;5056999;28;19916;-81
2022/03/19 12:46:23;;;;;;;;;;;11.10;37.00;;;;;;5055797;28;19959;-80
2022/03/19 12:48:48;;;;;;;;;;;11.10;38.90;;;;;;5055483;28;19913;-81
2022/03/19 12:51:21;;;;;;;;;;;11.10;38.00;;;;;;5057578;28;20352;-81
2022/03/19 12:53:47;;;;;;;;;;;11.10;37.70;;;;;;5059582;28;19984;-80
2022/03/19 12:56:22;;;;;;;;;;;11.20;39.60;;;;;;5066641;28;19921;-79
2022/03/19 12:58:50;;;;;;;;;;;11.30;38.00;;;;;;5063427;28;19913;-80
2022/03/19 13:01:16;;;;;;;;;;;11.30;39.30;;;;;;5063138;28;19960;-80
2022/03/19 13:03:42;;;;;;;;;;;11.40;37.50;;;;;;5057195;28;20003;-80
2022/03/19 13:06:08;;;;;;;;;;;11.40;37.80;;;;;;5057725;28;19956;-80
2022/03/19 13:08:43;;;;;;;;;;;11.50;38.00;;;;;;5062129;28;19993;-80
2022/03/19 13:11:12;;;;;;;;;;;11.40;38.90;;;;;;5066434;28;19916;-80
2022/03/19 13:13:38;;;;;;;;;;;11.30;37.30;;;;;;5068871;28;19909;-80
2022/03/19 13:16:04;;;;;;;;;;;11.40;38.10;;;;;;5057551;28;19927;-81
2022/03/19 13:18:30;;;;;;;;;;;11.40;37.70;;;;;;5056983;28;19990;-80
2022/03/19 13:21:03;;;;;;;;;;;11.40;38.40;;;;;;5055464;28;19948;-80
2022/03/19 13:23:29;;;;;;;;;;;11.50;37.40;;;;;;5055924;28;19927;-79
2022/03/19 13:25:55;;;;;;;;;;;11.50;36.90;;;;;;5055113;28;19912;-80
2022/03/19 13:28:20;;;;;;;;;;;11.60;38.80;;;;;;5057328;28;19912;-80
2022/03/19 13:30:50;;;;;;;;;;;11.50;36.90;;;;;;5054996;28;19909;-81
2022/03/19 13:33:16;;;;;;;;;;;11.50;36.00;;;;;;5056164;28;19952;-80
2022/03/19 13:35:47;;;;;;;;;;;11.50;35.80;;;;;;5053948;28;20479;-80
2022/03/19 13:38:17;;;;;;;;;;;11.50;34.70;;;;;;5054102;28;19943;-81
2022/03/19 13:40:43;;;;;;;;;;;11.50;34.80;;;;;;5053656;28;19908;-82
2022/03/19 13:43:09;;;;;;;;;;;11.40;35.20;;;;;;5053792;28;19917;-79
2022/03/19 13:45:35;;;;;;;;;;;11.50;37.80;;;;;;5053882;28;20301;-80
2022/03/19 13:48:01;;;;;;;;;;;11.60;35.90;;;;;;5054423;28;19924;-80
2022/03/19 13:50:27;;;;;;;;;;;11.50;37.70;;;;;;5052706;28;20116;-80
2022/03/19 13:52:55;;;;;;;;;;;11.50;35.60;;;;;;5052356;28;20021;-80
2022/03/19 13:55:21;;;;;;;;;;;11.40;35.80;;;;;;5054194;28;20010;-80
2022/03/19 13:57:50;;;;;;;;;;;11.40;35.70;;;;;;5055721;28;19913;-80
2022/03/19 14:00:18;;;;;;;;;;;11.50;36.60;;;;;;5053270;28;19917;-80
2022/03/19 14:02:54;;;;;;;;;;;11.50;36.70;;;;;;5055083;28;19944;-79
2022/03/19 14:05:27;;;;;;;;;;;11.40;36.70;;;;;;5058235;28;19991;-78
2022/03/19 14:07:57;;;;;;;;;;;11.20;37.70;;;;;;5061061;28;20267;-79
2022/03/19 14:10:27;;;;;;;;;;;11.10;38.50;;;;;;5060757;28;19984;-80
2022/03/19 14:13:00;;;;;;;;;;;11.10;38.00;;;;;;5061948;28;19908;-79
2022/03/19 14:15:34;;;;;;;;;;;11.20;40.40;;;;;;5060882;28;19917;-80
2022/03/19 14:18:00;;;;;;;;;;;11.20;38.30;;;;;;5059489;28;19948;-79
2022/03/19 14:20:26;;;;;;;;;;;11.10;38.80;;;;;;5057396;28;20331;-80
2022/03/19 14:22:51;;;;;;;;;;;11.20;38.60;;;;;;5056346;28;19949;-80
2022/03/19 14:25:18;;;;;;;;;;;11.10;38.40;;;;;;5055128;28;19916;-78
2022/03/19 14:27:44;;;;;;;;;;;11.10;40.40;;;;;;5055026;28;19920;-79
2022/03/19 14:30:12;;;;;;;;;;;11.20;39.10;;;;;;5054292;28;19919;-79
2022/03/19 14:32:38;;;;;;;;;;;11.10;38.30;;;;;;5054639;28;19913;-79
2022/03/19 14:35:03;;;;;;;;;;;11.10;37.80;;;;;;5051195;28;19920;-79
2022/03/19 14:37:29;;;;;;;;;;;11.10;39.00;;;;;;5056589;28;19912;-79